Ak-Bajtal, Uzbekistan
Current Conditions -  °F | °C
As of 4:00 PM on Friday 24 Oct 2014 (Local Time) from UAOO Reporting Station
Broken Clouds Broken Clouds  
Wind Chill: 64°   Ceiling: 3300
Heat Index: 64°   Visibility: 6mi
Dew Point: 48°   Wind: 13mph
Humidity: 56%   Direction: 210°SSW
Pressure: 29.94"   Gusts: NA
Location:  43.15°N, 64.33°E
Report Text: UAOO 241100Z 21006MPS 9999 BKN033CB 18/09 Q1014 R24/CLRD70NOSIG RMK QFE749/0998
Loading
Personal Weather Stations






























Interactive Weather Map
Tropical Storm Tracking
New forecast layout! Learn more

10-Day Weather Forecast

Advertisements
Track Severe Weather on mobile